createdAt,value
2023-01-22T00:01:24.440Z,100043.06
2023-01-22T00:03:53.372Z,100049.25
2023-01-22T00:06:22.025Z,100045.78
2023-01-22T00:08:49.825Z,100045.34
2023-01-22T00:11:18.961Z,100045.78
2023-01-22T00:13:46.526Z,100038.34
2023-01-22T00:16:15.586Z,100045.00
2023-01-22T00:18:43.914Z,100040.78
2023-01-22T00:21:12.939Z,100040.44
2023-01-22T00:23:40.672Z,100052.97
2023-01-22T00:26:12.062Z,100048.75
2023-01-22T00:28:45.530Z,100034.69
2023-01-22T00:31:16.456Z,100049.69
2023-01-22T00:33:44.171Z,100042.72
2023-01-22T00:36:14.984Z,100048.94
2023-01-22T00:38:42.144Z,100046.63
2023-01-22T00:41:10.112Z,100042.84
2023-01-22T00:43:41.184Z,100049.06
2023-01-22T00:46:10.326Z,100048.75
2023-01-22T00:48:37.914Z,100055.38
2023-01-22T00:51:08.896Z,100057.34
2023-01-22T00:53:37.138Z,100052.97
2023-01-22T00:56:04.847Z,100062.69
2023-01-22T00:58:31.891Z,100068.13
2023-01-22T01:00:59.475Z,100073.69
2023-01-22T01:03:32.485Z,100076.84
2023-01-22T01:06:01.115Z,100074.88
2023-01-22T01:08:30.305Z,100080.84
2023-01-22T01:11:05.651Z,100077.03
2023-01-22T01:13:38.137Z,100076.59
2023-01-22T01:16:09.015Z,100091.41
2023-01-22T01:18:36.377Z,100094.91
2023-01-22T01:21:04.987Z,100101.44
2023-01-22T01:23:32.120Z,100094.34
2023-01-22T01:26:04.757Z,100093.91
2023-01-22T01:28:32.049Z,100088.47
2023-01-22T01:31:05.323Z,100089.97
2023-01-22T01:33:32.672Z,100094.34
2023-01-22T01:36:02.007Z,100099.22
2023-01-22T01:38:32.850Z,100104.34
2023-01-22T01:41:00.284Z,100105.44
2023-01-22T01:43:30.000Z,100110.91
2023-01-22T01:45:59.707Z,100100.13
2023-01-22T01:48:31.161Z,100084.53
2023-01-22T01:51:09.297Z,100078.34
2023-01-22T01:53:38.829Z,100078.34
2023-01-22T01:56:11.359Z,100071.78
2023-01-22T01:58:41.783Z,100080.28
2023-01-22T02:01:14.389Z,100091.63
2023-01-22T02:03:41.938Z,100094.03
2023-01-22T02:06:14.735Z,100095.97
2023-01-22T02:08:48.063Z,100093.25
2023-01-22T02:11:18.166Z,100085.09
2023-01-22T02:14:03.821Z,100076.47
2023-01-22T02:16:31.452Z,100064.84
2023-01-22T02:19:02.220Z,100071.47
2023-01-22T02:21:41.410Z,100083.91
2023-01-22T02:24:10.357Z,100092.53
2023-01-22T02:26:39.389Z,100083.91
2023-01-22T02:29:08.450Z,100082.69
2023-01-22T02:31:37.679Z,100090.09
2023-01-22T02:34:06.379Z,100097.84
2023-01-22T02:36:37.811Z,100102.06
2023-01-22T02:39:05.455Z,100100.13
2023-01-22T02:41:33.285Z,100094.78
2023-01-22T02:44:00.743Z,100085.09
2023-01-22T02:46:31.323Z,100095.53
2023-01-22T02:48:58.430Z,100102.97
2023-01-22T02:51:30.549Z,100100.88
2023-01-22T02:53:57.736Z,100101.44
2023-01-22T02:56:25.069Z,100099.69
2023-01-22T02:58:54.372Z,100093.78
2023-01-22T03:01:24.421Z,100084.09
2023-01-22T03:04:11.047Z,100082.78
2023-01-22T03:06:47.579Z,100084.22
2023-01-22T03:09:16.417Z,100072.88
2023-01-22T03:11:49.916Z,100069.53
2023-01-22T03:14:44.592Z,100064.84
2023-01-22T03:17:31.658Z,100063.19
2023-01-22T03:20:19.149Z,100057.00
2023-01-22T03:22:48.214Z,100053.63
2023-01-22T03:25:15.323Z,100063.31
2023-01-22T03:28:03.461Z,100065.59
2023-01-22T03:30:33.510Z,100058.31
2023-01-22T03:33:00.598Z,100061.78
2023-01-22T03:35:28.450Z,100053.19
2023-01-22T03:38:12.396Z,100057.84
2023-01-22T03:40:42.209Z,100064.41
2023-01-22T03:43:12.487Z,100074.19
2023-01-22T03:45:40.380Z,100070.72
2023-01-22T03:48:11.031Z,100082.03
2023-01-22T03:50:40.916Z,100077.81
2023-01-22T03:53:10.539Z,100081.19
2023-01-22T03:55:40.362Z,100079.97
2023-01-22T03:58:07.752Z,100075.72
2023-01-22T04:00:36.534Z,100071.34
2023-01-22T04:03:11.054Z,100077.56
2023-01-22T04:05:40.537Z,100069.84
2023-01-22T04:08:07.640Z,100055.00
2023-01-22T04:10:39.693Z,100054.88
2023-01-22T04:13:07.222Z,100062.44
2023-01-22T04:15:35.142Z,100053.38
2023-01-22T04:18:08.084Z,100053.38
2023-01-22T04:20:46.422Z,100058.25
2023-01-22T04:23:28.395Z,100045.84
2023-01-22T04:25:58.539Z,100051.59
2023-01-22T04:28:27.948Z,100056.31
2023-01-22T04:30:56.462Z,100058.91
2023-01-22T04:33:46.195Z,100063.13
2023-01-22T04:36:21.416Z,100079.81
2023-01-22T04:38:48.500Z,100077.72
2023-01-22T04:41:18.177Z,100073.03
2023-01-22T04:43:45.316Z,100071.06
2023-01-22T04:46:13.639Z,100070.16
2023-01-22T04:48:41.420Z,100061.25
2023-01-22T04:51:08.723Z,100060.63
2023-01-22T04:53:38.272Z,100068.78
2023-01-22T04:56:07.707Z,100055.03
2023-01-22T04:58:37.232Z,100058.53
2023-01-22T05:01:05.484Z,100065.50
2023-01-22T05:03:33.640Z,100063.09
2023-01-22T05:06:04.086Z,100075.50
2023-01-22T05:08:33.280Z,100065.38
2023-01-22T05:11:05.444Z,100079.00
2023-01-22T05:13:47.131Z,100083.22
2023-01-22T05:16:18.069Z,100088.38
2023-01-22T05:18:45.407Z,100089.00
2023-01-22T05:21:12.799Z,100092.94
2023-01-22T05:23:40.292Z,100095.34
2023-01-22T05:26:08.162Z,100099.56
2023-01-22T05:29:01.369Z,100102.63
2023-01-22T05:31:39.009Z,100100.03
2023-01-22T05:34:10.761Z,100101.81
2023-01-22T05:36:38.508Z,100103.44
2023-01-22T05:39:15.821Z,100102.38
2023-01-22T05:41:43.596Z,100104.75
2023-01-22T05:44:13.543Z,100105.66
2023-01-22T05:46:42.069Z,100107.63
2023-01-22T05:49:27.645Z,100108.06
2023-01-22T05:51:57.360Z,100110.34
2023-01-22T05:54:24.413Z,100110.78
2023-01-22T05:56:54.995Z,100111.22
2023-01-22T05:59:23.775Z,100113.63
2023-01-22T06:01:59.491Z,100115.25
2023-01-22T06:04:26.864Z,100107.84
2023-01-22T06:06:54.361Z,100107.09
2023-01-22T06:09:25.304Z,100110.38
2023-01-22T06:11:52.818Z,100098.69
2023-01-22T06:14:20.184Z,100116.91
2023-01-22T06:16:49.126Z,100110.25
2023-01-22T06:19:25.395Z,100106.31
2023-01-22T06:21:54.585Z,100115.91
2023-01-22T06:24:30.017Z,100116.78
2023-01-22T06:26:58.984Z,100125.59
2023-01-22T06:29:35.866Z,100116.03
2023-01-22T06:32:03.639Z,100112.97
2023-01-22T06:34:30.788Z,100124.19
2023-01-22T06:37:00.661Z,100114.19
2023-01-22T06:39:31.647Z,100117.22
2023-01-22T06:42:09.288Z,100117.78
2023-01-22T06:44:36.392Z,100129.00
2023-01-22T06:47:03.869Z,100124.44
2023-01-22T06:49:31.641Z,100134.75
2023-01-22T06:51:59.008Z,100122.78
2023-01-22T06:54:26.107Z,100122.03
2023-01-22T06:56:53.974Z,100123.53
2023-01-22T06:59:23.438Z,100135.22
2023-01-22T07:01:50.772Z,100136.72
2023-01-22T07:04:18.086Z,100133.53
2023-01-22T07:06:45.562Z,100141.09
2023-01-22T07:09:14.968Z,100134.09
2023-01-22T07:11:44.672Z,100140.66
2023-01-22T07:14:11.829Z,100142.94
2023-01-22T07:16:39.302Z,100151.44
2023-01-22T07:19:06.411Z,100154.59
2023-01-22T07:21:36.263Z,100156.88
2023-01-22T07:24:03.410Z,100154.16
2023-01-22T07:26:30.669Z,100161.88
2023-01-22T07:28:57.735Z,100157.19
2023-01-22T07:31:25.237Z,100162.31
2023-01-22T07:33:52.322Z,100156.09
2023-01-22T07:36:20.920Z,100166.44
2023-01-22T07:38:48.173Z,100166.56
2023-01-22T07:41:25.473Z,100167.66
2023-01-22T07:43:53.663Z,100164.16
2023-01-22T07:46:21.028Z,100174.28
2023-01-22T07:48:48.072Z,100174.81
2023-01-22T07:51:17.817Z,100172.53
2023-01-22T07:53:44.841Z,100172.88
2023-01-22T07:56:12.310Z,100173.63
2023-01-22T07:58:42.095Z,100175.34
2023-01-22T08:01:11.783Z,100177.31
2023-01-22T08:03:39.435Z,100178.09
2023-01-22T08:06:11.742Z,100182.00
2023-01-22T08:08:42.712Z,100187.03
2023-01-22T08:11:09.995Z,100179.25
2023-01-22T08:13:37.012Z,100178.53
2023-01-22T08:16:07.038Z,100190.81
2023-01-22T08:18:34.076Z,100190.69
2023-01-22T08:21:01.951Z,100191.03
2023-01-22T08:23:29.599Z,100199.09
2023-01-22T08:26:04.126Z,100191.69
2023-01-22T08:28:31.808Z,100194.81
2023-01-22T08:31:01.336Z,100200.91
2023-01-22T08:33:31.070Z,100199.41
2023-01-22T08:35:58.543Z,100196.25
2023-01-22T08:38:25.578Z,100197.31
2023-01-22T08:40:55.456Z,100200.47
2023-01-22T08:43:22.553Z,100203.97
2023-01-22T08:45:50.486Z,100196.69
2023-01-22T08:48:18.156Z,100199.28
2023-01-22T08:50:45.717Z,100201.56
2023-01-22T08:53:15.163Z,100205.06
2023-01-22T08:55:48.851Z,100213.53
2023-01-22T08:58:15.908Z,100223.91
2023-01-22T09:00:44.684Z,100216.03
2023-01-22T09:03:11.788Z,100222.38
2023-01-22T09:05:40.324Z,100225.88
2023-01-22T09:08:08.610Z,100231.31
2023-01-22T09:10:35.929Z,100236.31
2023-01-22T09:13:03.124Z,100233.47
2023-01-22T09:15:30.487Z,100233.47
2023-01-22T09:17:57.687Z,100236.97
2023-01-22T09:20:25.105Z,100235.75
2023-01-22T09:22:52.262Z,100241.22
2023-01-22T09:25:20.515Z,100241.88
2023-01-22T09:27:47.590Z,100245.84
2023-01-22T09:30:15.432Z,100247.41
2023-01-22T09:32:44.873Z,100244.09
2023-01-22T09:35:12.152Z,100244.97
2023-01-22T09:37:41.943Z,100243.78
2023-01-22T09:40:37.649Z,100249.88
2023-01-22T09:43:10.642Z,100241.13
2023-01-22T09:45:39.233Z,100240.81
2023-01-22T09:48:12.535Z,100240.81
2023-01-22T09:50:41.530Z,100243.22
2023-01-22T09:53:15.159Z,100246.59
2023-01-22T09:55:50.065Z,100254.97
2023-01-22T09:58:25.211Z,100251.03
2023-01-22T10:01:00.410Z,100253.75
2023-01-22T10:03:45.647Z,100256.69
2023-01-22T10:06:15.350Z,100251.56
2023-01-22T10:09:08.046Z,100262.34
2023-01-22T10:11:37.808Z,100260.03
2023-01-22T10:14:09.479Z,100260.16
2023-01-22T10:16:39.389Z,100261.66
2023-01-22T10:19:18.010Z,100259.97
2023-01-22T10:21:48.820Z,100266.09
2023-01-22T10:24:16.244Z,100261.97
2023-01-22T10:26:49.796Z,100267.31
2023-01-22T10:29:30.861Z,100273.19
2023-01-22T10:32:04.012Z,100274.59
2023-01-22T10:34:37.486Z,100267.91
2023-01-22T10:37:25.114Z,100270.53
2023-01-22T10:39:57.139Z,100269.94
2023-01-22T10:42:27.252Z,100267.84
2023-01-22T10:45:11.343Z,100273.19
2023-01-22T10:47:39.073Z,100271.09
2023-01-22T10:50:14.142Z,100275.78
2023-01-22T10:52:50.721Z,100271.97
2023-01-22T10:55:32.053Z,100272.75
2023-01-22T10:58:04.063Z,100280.28
2023-01-22T11:00:50.590Z,100274.84
2023-01-22T11:03:39.381Z,100276.13
2023-01-22T11:06:13.996Z,100272.16
2023-01-22T11:08:56.307Z,100276.75
2023-01-22T11:11:47.805Z,100264.94
2023-01-22T11:14:24.812Z,100271.91
2023-01-22T11:16:54.196Z,100279.19
2023-01-22T11:19:36.973Z,100276.66
2023-01-22T11:22:15.312Z,100269.63
2023-01-22T11:24:53.016Z,100273.25
2023-01-22T11:27:44.825Z,100271.59
2023-01-22T11:30:37.252Z,100265.72
2023-01-22T11:33:10.450Z,100267.47
2023-01-22T11:35:51.987Z,100268.56
2023-01-22T11:38:51.331Z,100276.03
2023-01-22T11:41:42.768Z,100272.53
2023-01-22T11:44:47.752Z,100269.56
2023-01-22T11:47:21.150Z,100272.53
2023-01-22T11:50:08.119Z,100265.13
2023-01-22T11:52:53.766Z,100272.34
2023-01-22T11:55:40.045Z,100278.88
2023-01-22T11:58:25.957Z,100272.41
2023-01-22T12:01:12.102Z,100265.97
2023-01-22T12:03:52.136Z,100275.78
2023-01-22T12:06:50.628Z,100273.63
2023-01-22T12:09:21.280Z,100285.63
2023-01-22T12:11:59.935Z,100277.88
2023-01-22T12:14:55.146Z,100289.84
2023-01-22T12:17:34.321Z,100288.63
2023-01-22T12:20:33.336Z,100293.22
2023-01-22T12:23:11.828Z,100293.34
2023-01-22T12:25:49.819Z,100291.41
2023-01-22T12:28:21.795Z,100287.66
2023-01-22T12:30:52.406Z,100287.59
2023-01-22T12:33:27.991Z,100297.09
2023-01-22T12:36:02.708Z,100298.56
2023-01-22T12:38:38.543Z,100297.06
2023-01-22T12:41:29.970Z,100297.38
2023-01-22T12:44:22.738Z,100301.34
2023-01-22T12:46:59.151Z,100306.09
2023-01-22T12:49:27.063Z,100310.63
2023-01-22T12:51:56.633Z,100315.06
2023-01-22T12:54:27.574Z,100309.34
2023-01-22T12:57:09.356Z,100310.75
2023-01-22T12:59:36.873Z,100315.19
2023-01-22T13:02:21.136Z,100315.84
2023-01-22T13:04:48.854Z,100323.19
2023-01-22T13:07:31.046Z,100327.72
2023-01-22T13:10:22.155Z,100331.53
2023-01-22T13:12:52.308Z,100330.66
2023-01-22T13:15:27.228Z,100328.09
2023-01-22T13:18:06.691Z,100333.56
2023-01-22T13:20:53.873Z,100335.97
2023-01-22T13:23:21.766Z,100329.56
2023-01-22T13:25:54.958Z,100339.13
2023-01-22T13:28:23.503Z,100343.03
2023-01-22T13:31:02.614Z,100345.78
2023-01-22T13:33:30.809Z,100341.09
2023-01-22T13:36:14.574Z,100339.72
2023-01-22T13:38:42.333Z,100356.56
2023-01-22T13:41:13.231Z,100358.97
2023-01-22T13:43:43.897Z,100362.75
2023-01-22T13:46:15.179Z,100365.16
2023-01-22T13:48:43.572Z,100376.09
2023-01-22T13:51:20.457Z,100368.97
2023-01-22T13:53:53.812Z,100371.84
2023-01-22T13:56:26.843Z,100373.09
2023-01-22T13:59:18.022Z,100377.81
2023-01-22T14:01:47.035Z,100380.41
2023-01-22T14:04:35.474Z,100378.09
2023-01-22T14:07:05.088Z,100383.44
2023-01-22T14:09:35.985Z,100387.22
2023-01-22T14:12:20.240Z,100392.03
2023-01-22T14:14:48.521Z,100397.31
2023-01-22T14:17:25.964Z,100397.88
2023-01-22T14:19:53.624Z,100398.78
2023-01-22T14:22:22.590Z,100395.34
2023-01-22T14:24:56.303Z,100403.53
2023-01-22T14:27:27.628Z,100397.44
2023-01-22T14:29:55.781Z,100403.78
2023-01-22T14:32:24.098Z,100398.13
2023-01-22T14:34:51.967Z,100398.38
2023-01-22T14:37:22.617Z,100399.50
2023-01-22T14:39:51.027Z,100402.97
2023-01-22T14:42:18.440Z,100406.72
2023-01-22T14:44:49.692Z,100408.50
2023-01-22T14:47:17.982Z,100408.06
2023-01-22T14:49:50.862Z,100410.13
2023-01-22T14:52:18.324Z,100418.88
2023-01-22T14:54:46.103Z,100420.41
2023-01-22T14:57:13.364Z,100432.09
2023-01-22T14:59:41.530Z,100426.75
2023-01-22T15:02:11.871Z,100431.13
2023-01-22T15:04:42.842Z,100428.94
2023-01-22T15:07:11.569Z,100423.59
2023-01-22T15:09:40.186Z,100428.31
2023-01-22T15:12:08.576Z,100438.00
2023-01-22T15:14:36.473Z,100439.94
2023-01-22T15:17:04.182Z,100436.16
2023-01-22T15:19:40.935Z,100438.66
2023-01-22T15:22:11.036Z,100443.78
2023-01-22T15:24:39.594Z,100439.88
2023-01-22T15:27:07.603Z,100444.56
2023-01-22T15:29:35.742Z,100443.16
2023-01-22T15:32:04.197Z,100447.94
2023-01-22T15:34:31.946Z,100445.56
2023-01-22T15:37:04.089Z,100454.59
2023-01-22T15:39:34.294Z,100451.13
2023-01-22T15:42:03.532Z,100439.78
2023-01-22T15:44:31.799Z,100443.38
2023-01-22T15:47:01.348Z,100444.13
2023-01-22T15:49:30.075Z,100465.94
2023-01-22T15:51:57.962Z,100472.59
2023-01-22T15:54:27.192Z,100491.69
2023-01-22T15:56:56.061Z,100498.03
2023-01-22T15:59:25.466Z,100500.75
2023-01-22T16:01:53.442Z,100508.94
2023-01-22T16:04:24.522Z,100506.50
2023-01-22T16:06:52.299Z,100498.78
2023-01-22T16:09:20.538Z,100505.78
2023-01-22T16:11:48.115Z,100505.34
2023-01-22T16:14:17.497Z,100499.53
2023-01-22T16:16:45.769Z,100517.75
2023-01-22T16:19:13.886Z,100522.03
2023-01-22T16:21:41.872Z,100526.28
2023-01-22T16:24:10.666Z,100535.56
2023-01-22T16:26:41.387Z,100529.22
2023-01-22T16:29:10.979Z,100526.94
2023-01-22T16:31:38.904Z,100526.72
2023-01-22T16:34:18.374Z,100534.44
2023-01-22T16:36:46.717Z,100540.78
2023-01-22T16:39:23.563Z,100538.38
2023-01-22T16:41:54.015Z,100535.34
2023-01-22T16:44:27.702Z,100525.84
2023-01-22T16:47:00.490Z,100524.75
2023-01-22T16:49:31.986Z,100529.78
2023-01-22T16:52:21.457Z,100533.38
2023-01-22T16:54:50.744Z,100532.94
2023-01-22T16:57:20.953Z,100539.25
2023-01-22T16:59:49.522Z,100539.25
2023-01-22T17:02:20.554Z,100540.88
2023-01-22T17:04:51.659Z,100541.22
2023-01-22T17:07:33.221Z,100549.50
2023-01-22T17:10:02.394Z,100560.41
2023-01-22T17:12:30.463Z,100557.25
2023-01-22T17:14:58.949Z,100563.13
2023-01-22T17:17:27.275Z,100562.47
2023-01-22T17:19:55.752Z,100573.38
2023-01-22T17:22:24.814Z,100581.56
2023-01-22T17:24:55.384Z,100588.44
2023-01-22T17:27:26.206Z,100581.56
2023-01-22T17:29:54.881Z,100581.91
2023-01-22T17:32:34.121Z,100585.81
2023-01-22T17:35:10.756Z,100584.28
2023-01-22T17:37:38.970Z,100587.78
2023-01-22T17:40:08.365Z,100584.72
2023-01-22T17:42:36.979Z,100584.28
2023-01-22T17:45:07.840Z,100597.91
2023-01-22T17:47:37.306Z,100603.03
2023-01-22T17:50:06.115Z,100603.81
2023-01-22T17:52:34.390Z,100606.53
2023-01-22T17:55:02.731Z,100599.97
2023-01-22T17:57:30.844Z,100608.94
2023-01-22T17:59:58.946Z,100612.00
2023-01-22T18:02:30.441Z,100606.53
2023-01-22T18:04:58.816Z,100616.66
2023-01-22T18:07:27.017Z,100624.50
2023-01-22T18:09:58.434Z,100619.72
2023-01-22T18:12:27.938Z,100626.16
2023-01-22T18:14:56.383Z,100625.38
2023-01-22T18:17:25.381Z,100626.91
2023-01-22T18:19:53.997Z,100632.78
2023-01-22T18:22:24.827Z,100630.31
2023-01-22T18:24:56.813Z,100626.91
2023-01-22T18:27:25.580Z,100620.59
2023-01-22T18:29:53.482Z,100624.84
2023-01-22T18:32:23.205Z,100626.50
2023-01-22T18:34:53.390Z,100634.34
2023-01-22T18:37:23.199Z,100649.91
2023-01-22T18:39:53.260Z,100642.19
2023-01-22T18:42:21.304Z,100640.44
2023-01-22T18:44:51.935Z,100651.78
2023-01-22T18:47:21.172Z,100655.72
2023-01-22T18:49:51.375Z,100656.88
2023-01-22T18:52:20.188Z,100658.09
2023-01-22T18:54:48.604Z,100657.22
2023-01-22T18:57:19.998Z,100649.81
2023-01-22T18:59:48.596Z,100650.34
2023-01-22T19:02:22.340Z,100643.25
2023-01-22T19:04:53.650Z,100646.84
2023-01-22T19:07:22.043Z,100660.50
2023-01-22T19:09:55.222Z,100668.22
2023-01-22T19:12:23.461Z,100672.94
2023-01-22T19:14:51.989Z,100670.22
2023-01-22T19:17:21.416Z,100672.41
2023-01-22T19:19:49.822Z,100674.81
2023-01-22T19:22:19.711Z,100674.91
2023-01-22T19:24:49.636Z,100686.88
2023-01-22T19:27:20.383Z,100690.03
2023-01-22T19:29:49.665Z,100682.97
2023-01-22T19:32:22.776Z,100691.16
2023-01-22T19:34:51.543Z,100704.78
2023-01-22T19:37:27.040Z,100699.69
2023-01-22T19:39:58.036Z,100701.72
2023-01-22T19:42:26.535Z,100706.31
2023-01-22T19:44:54.802Z,100702.06
2023-01-22T19:47:23.381Z,100698.13
2023-01-22T19:49:53.923Z,100675.97
2023-01-22T19:52:21.797Z,100676.31
2023-01-22T19:54:51.233Z,100670.88
2023-01-22T19:57:19.832Z,100672.84
2023-01-22T19:59:53.602Z,100686.78
2023-01-22T20:02:24.863Z,100697.69
2023-01-22T20:04:54.155Z,100709.47
2023-01-22T20:07:23.661Z,100717.31
2023-01-22T20:09:54.334Z,100714.59
2023-01-22T20:12:23.814Z,100728.13
2023-01-22T20:14:52.202Z,100743.75
2023-01-22T20:17:24.508Z,100760.94
2023-01-22T20:19:55.940Z,100767.06
2023-01-22T20:22:24.547Z,100771.75
2023-01-22T20:24:53.196Z,100764.34
2023-01-22T20:27:22.136Z,100765.13
2023-01-22T20:29:52.362Z,100761.28
2023-01-22T20:32:22.540Z,100752.22
2023-01-22T20:34:52.293Z,100746.03
2023-01-22T20:37:21.454Z,100748.75
2023-01-22T20:39:50.211Z,100747.22
2023-01-22T20:42:18.670Z,100746.78
2023-01-22T20:44:51.259Z,100753.88
2023-01-22T20:47:20.020Z,100762.06
2023-01-22T20:49:48.844Z,100764.78
2023-01-22T20:52:20.633Z,100761.28
2023-01-22T20:55:00.933Z,100757.78
2023-01-22T20:57:32.253Z,100759.66
2023-01-22T21:00:00.255Z,100771.66
2023-01-22T21:02:28.459Z,100774.03
2023-01-22T21:04:57.265Z,100788.03
2023-01-22T21:07:25.114Z,100769.03
2023-01-22T21:09:53.383Z,100760.84
2023-01-22T21:12:21.344Z,100763.66
2023-01-22T21:14:55.075Z,100770.22
2023-01-22T21:17:25.451Z,100762.06
2023-01-22T21:19:55.706Z,100760.84
2023-01-22T21:22:24.518Z,100766.72
2023-01-22T21:24:54.487Z,100760.09
2023-01-22T21:27:22.491Z,100757.03
2023-01-22T21:29:50.598Z,100759.31
2023-01-22T21:32:19.480Z,100772.19
2023-01-22T21:34:48.372Z,100778.06
2023-01-22T21:37:19.512Z,100792.81
2023-01-22T21:39:47.126Z,100790.19
2023-01-22T21:42:33.223Z,100802.94
2023-01-22T21:45:20.023Z,100798.34
2023-01-22T21:47:49.282Z,100801.47
2023-01-22T21:50:17.281Z,100791.34
2023-01-22T21:52:45.805Z,100806.94
2023-01-22T21:55:15.754Z,100817.84
2023-01-22T21:57:44.235Z,100810.09
2023-01-22T22:00:13.961Z,100809.34
2023-01-22T22:02:41.240Z,100812.41
2023-01-22T22:05:09.964Z,100813.59
2023-01-22T22:07:37.370Z,100807.88
2023-01-22T22:10:05.697Z,100804.72
2023-01-22T22:12:32.931Z,100799.19
2023-01-22T22:15:04.579Z,100810.53
2023-01-22T22:17:34.084Z,100810.19
2023-01-22T22:20:01.787Z,100815.97
2023-01-22T22:22:31.372Z,100809.34
2023-01-22T22:24:58.850Z,100820.16
2023-01-22T22:27:27.801Z,100821.78
2023-01-22T22:29:55.407Z,100815.25
2023-01-22T22:32:22.400Z,100813.69
2023-01-22T22:34:49.863Z,100815.31
2023-01-22T22:37:17.301Z,100824.59
2023-01-22T22:39:44.644Z,100821.94
2023-01-22T22:42:11.764Z,100827.84
2023-01-22T22:44:39.049Z,100842.16
2023-01-22T22:47:06.231Z,100839.06
2023-01-22T22:49:33.698Z,100841.38
2023-01-22T22:52:00.851Z,100864.72
2023-01-22T22:54:28.274Z,100856.97
2023-01-22T22:56:55.653Z,100853.13
2023-01-22T22:59:25.447Z,100851.50
2023-01-22T23:01:52.417Z,100863.63
2023-01-22T23:04:19.711Z,100855.44
2023-01-22T23:06:47.367Z,100860.03
2023-01-22T23:09:17.701Z,100858.50
2023-01-22T23:11:44.845Z,100857.72
2023-01-22T23:14:12.694Z,100850.41
2023-01-22T23:16:43.444Z,100848.03
2023-01-22T23:19:16.731Z,100855.09
2023-01-22T23:21:44.562Z,100854.22
2023-01-22T23:24:14.248Z,100856.63
2023-01-22T23:26:43.196Z,100848.44
2023-01-22T23:29:13.051Z,100855.44
2023-01-22T23:31:40.885Z,100852.38
2023-01-22T23:34:12.374Z,100840.25
2023-01-22T23:36:43.377Z,100849.22
2023-01-22T23:39:15.453Z,100839.06
2023-01-22T23:41:43.164Z,100844.53
2023-01-22T23:44:11.762Z,100834.81
2023-01-22T23:46:42.309Z,100831.00
2023-01-22T23:49:10.155Z,100828.94
2023-01-22T23:51:41.189Z,100831.59
2023-01-22T23:54:09.083Z,100820.44
2023-01-22T23:56:36.213Z,100833.63
2023-01-22T23:59:03.964Z,100828.53
